CheckWX is a tool to help pilots better visualize weather data.  It is not intended as a substitute for an official pre-flight weather briefing.

02:14:08 UTC

ZBTJ TAF
Tianjin Binhai International Airport
Tianjin, China
TAF ZBTJ 221930Z 2300/2324 15004MPS 2000 BR NSC TX24/2306Z TN14/2321Z BECMG 2301/2302 3000

Apr-23@
00:00 UTC

Apr-23 @ 00:00 UTC

Apr-23@
01:00 UTC

Apr-23 @ 01:00 UTC

TAF ZBTJ 221930Z 2300/2324 15004MPS 2000 BR NSC TX24/2306Z TN14/2321Z

Expired

Wind
  • 150° at 8 KTS
Conditions
Mist
Cloud Levels
  • No significant clouds

Apr-23@
01:00 UTC

Apr-23 @ 01:00 UTC

Apr-24@
00:00 UTC

Apr-24 @ 00:00 UTC

BECMG 2301/2302 3000

Becoming

Becoming Conditions expected by Tue, Apr 23, 2019 @ 02:00 UTC

Wind
  • 150° at 8 KTS
Conditions
Mist
Cloud Levels
  • No significant clouds